Time;durP1;ratioP1;P1;durP2;ratioP2;P2;SDS_P1;SDS_P2;PMS_P1;PMS_P2;Temp;Humidity;BMP_temperature;BMP_pressure;BME280_temperature;BME280_humidity;BME280_pressure;Samples;Min_cycle;Max_cycle;Signal;HPM_P1;HPM_P2
2022/12/10 00:02:10;;;;;;;66.97;28.00;;;0.20;99.90;;;;;;5034272;28;20440;-81
2022/12/10 00:04:38;;;;;;;69.27;28.20;;;0.10;99.90;;;;;;5034100;28;20447;-84
2022/12/10 00:07:05;;;;;;;69.00;27.97;;;0.10;99.90;;;;;;5033974;28;20447;-82
2022/12/10 00:09:33;;;;;;;62.70;27.07;;;0.20;99.90;;;;;;5025241;28;20453;-81
2022/12/10 00:12:00;;;;;;;61.87;27.90;;;0.10;99.90;;;;;;5026172;28;20987;-80
2022/12/10 00:14:27;;;;;;;56.37;26.67;;;0.20;99.90;;;;;;5035232;28;20445;-81
2022/12/10 00:16:54;;;;;;;62.53;26.53;;;0.10;99.90;;;;;;5034596;28;20472;-85
2022/12/10 00:19:23;;;;;;;76.85;34.58;;;0.20;99.90;;;;;;5034519;28;20790;-84
2022/12/10 00:21:56;;;;;;;61.47;28.33;;;0.10;99.90;;;;;;5034972;28;20211;-84
2022/12/10 00:24:25;;;;;;;58.83;27.07;;;0.20;99.90;;;;;;5021274;28;20453;-81
2022/12/10 00:26:51;;;;;;;58.43;26.07;;;0.20;99.90;;;;;;5034221;28;20437;-82
2022/12/10 00:29:21;;;;;;;60.70;26.83;;;0.20;99.90;;;;;;5034642;28;20447;-86
2022/12/10 00:31:48;;;;;;;58.70;26.70;;;0.10;99.90;;;;;;5034146;28;20444;-80
2022/12/10 00:34:16;;;;;;;69.57;27.90;;;0.20;99.90;;;;;;5034783;28;20440;-81
2022/12/10 00:36:45;;;;;;;61.80;26.83;;;0.20;99.90;;;;;;5034560;28;20465;-85
2022/12/10 00:39:15;;;;;;;70.13;27.40;;;0.20;99.90;;;;;;5034496;28;20833;-82
2022/12/10 00:41:43;;;;;;;71.40;27.60;;;0.10;99.90;;;;;;5034226;28;20451;-84
2022/12/10 00:44:16;;;;;;;66.43;27.20;;;-0.10;99.90;;;;;;5033618;28;20448;-82
2022/12/10 00:46:44;;;;;;;65.27;27.00;;;-0.10;99.90;;;;;;5034423;28;20440;-86
2022/12/10 00:49:14;;;;;;;66.90;28.73;;;-0.10;99.90;;;;;;5034295;28;20448;-84
2022/12/10 00:51:44;;;;;;;73.83;29.67;;;0.10;99.90;;;;;;5034017;28;20943;-84
2022/12/10 00:54:12;;;;;;;68.87;26.97;;;0.00;99.90;;;;;;5034522;28;20448;-84
2022/12/10 00:56:40;;;;;;;65.73;28.97;;;-0.10;99.90;;;;;;5033705;28;20445;-83
2022/12/10 00:59:08;;;;;;;61.77;26.73;;;0.00;99.90;;;;;;5034159;28;20447;-85
2022/12/10 01:01:37;;;;;;;68.57;28.97;;;0.10;99.90;;;;;;5033879;28;20441;-85
2022/12/10 01:04:09;;;;;;;66.03;28.60;;;0.10;99.90;;;;;;5034494;28;20448;-83
2022/12/10 01:06:41;;;;;;;66.63;27.97;;;0.20;99.90;;;;;;5033739;28;20459;-78
2022/12/10 01:09:13;;;;;;;72.20;29.03;;;0.20;99.90;;;;;;5033936;28;20460;-81
2022/12/10 01:11:44;;;;;;;70.70;29.27;;;0.20;99.90;;;;;;5033961;28;20545;-81
2022/12/10 01:14:13;;;;;;;65.77;28.30;;;0.30;99.90;;;;;;5034047;28;20444;-85
2022/12/10 01:16:42;;;;;;;103.22;43.80;;;0.30;99.90;;;;;;5033343;28;20441;-84
2022/12/10 01:19:10;;;;;;;73.60;31.00;;;0.20;99.90;;;;;;5034326;28;20203;-82
2022/12/10 01:21:43;;;;;;;78.97;30.23;;;0.10;99.90;;;;;;5033044;28;20931;-81
2022/12/10 01:24:14;;;;;;;89.13;30.10;;;0.00;99.90;;;;;;5034136;28;20471;-85
2022/12/10 01:26:41;;;;;;;71.17;29.73;;;0.00;99.90;;;;;;5033864;28;20452;-82
2022/12/10 01:29:07;;;;;;;69.67;28.13;;;0.00;99.90;;;;;;5033316;28;20444;-79
2022/12/10 01:31:36;;;;;;;65.57;28.93;;;0.00;99.90;;;;;;5033244;28;20448;-82
2022/12/10 01:34:06;;;;;;;74.40;28.30;;;0.10;99.90;;;;;;5033997;28;20472;-85
2022/12/10 01:36:36;;;;;;;69.07;27.90;;;0.10;99.90;;;;;;5033768;28;20467;-80
2022/12/10 01:39:05;;;;;;;70.00;28.77;;;-0.10;99.90;;;;;;5033713;28;20990;-77
2022/12/10 01:41:36;;;;;;;72.00;30.20;;;0.00;99.90;;;;;;5024400;28;20471;-81
2022/12/10 01:44:26;;;;;;;79.70;32.08;;;0.00;99.90;;;;;;5028615;28;20462;-78
2022/12/10 01:46:55;;;;;;;66.97;29.47;;;0.00;99.90;;;;;;5032909;28;20203;-80
2022/12/10 01:49:25;;;;;;;76.47;31.10;;;0.30;99.90;;;;;;5033202;28;20463;-76
2022/12/10 01:51:55;;;;;;;63.47;28.50;;;0.30;99.90;;;;;;5033080;28;20436;-76
2022/12/10 01:54:24;;;;;;;86.00;30.33;;;0.30;99.90;;;;;;5036569;28;20445;-78
2022/12/10 01:56:56;;;;;;;94.87;29.37;;;0.10;99.90;;;;;;5037303;28;20448;-79
2022/12/10 01:59:25;;;;;;;66.97;28.17;;;0.00;99.90;;;;;;5036697;28;20444;-74
2022/12/10 02:02:01;;;;;;;79.77;29.30;;;0.00;99.90;;;;;;5037196;28;20927;-77
2022/12/10 02:04:33;;;;;;;118.83;30.10;;;0.10;99.90;;;;;;5036790;28;20443;-79
2022/12/10 02:07:06;;;;;;;83.27;28.30;;;-0.20;99.90;;;;;;5037162;28;20448;-77
2022/12/10 02:09:39;;;;;;;92.07;28.57;;;-0.20;99.90;;;;;;5036783;28;20448;-79
2022/12/10 02:12:12;;;;;;;73.73;29.43;;;-0.10;99.90;;;;;;5036994;28;20444;-75
2022/12/10 02:14:44;;;;;;;96.17;29.03;;;-0.10;99.90;;;;;;5036394;28;20445;-76
2022/12/10 02:17:17;;;;;;;87.97;29.03;;;-0.10;99.90;;;;;;5037200;28;20453;-77
2022/12/10 02:20:00;;;;;;;103.63;29.47;;;-0.20;99.90;;;;;;5034622;28;20962;-78
2022/12/10 02:22:31;;;;;;;96.10;27.13;;;-0.20;99.90;;;;;;5022922;28;20947;-77
2022/12/10 02:24:59;;;;;;;67.53;27.80;;;-0.30;99.90;;;;;;5035369;28;20814;-77
2022/12/10 02:27:32;;;;;;;79.43;29.13;;;-0.30;99.90;;;;;;5036636;28;20445;-75
2022/12/10 02:30:02;;;;;;;70.13;26.93;;;-0.40;99.90;;;;;;5035615;28;20448;-77
2022/12/10 02:32:36;;;;;;;70.60;27.10;;;-0.10;99.90;;;;;;5036245;28;20483;-81
2022/12/10 02:35:10;;;;;;;91.03;28.40;;;-0.20;99.90;;;;;;5036621;28;20436;-75
2022/12/10 02:37:40;;;;;;;87.93;27.67;;;-0.30;99.90;;;;;;5034495;28;20459;-78
2022/12/10 02:40:12;;;;;;;69.10;29.03;;;-0.30;99.90;;;;;;5035326;28;20459;-75
2022/12/10 02:42:41;;;;;;;125.03;51.25;;;-0.20;99.90;;;;;;5033954;28;20434;-72
2022/12/10 02:45:11;;;;;;;104.23;34.23;;;-0.10;99.90;;;;;;5034830;28;20658;-74
2022/12/10 02:47:40;;;;;;;82.33;30.83;;;-0.20;99.90;;;;;;5021216;28;20437;-74
2022/12/10 02:50:08;;;;;;;90.10;31.00;;;-0.30;99.90;;;;;;5034566;28;20447;-73
2022/12/10 02:52:35;;;;;;;80.87;29.70;;;-0.50;99.90;;;;;;5035283;28;20483;-75
2022/12/10 02:55:02;;;;;;;80.97;29.60;;;-0.40;99.90;;;;;;5035225;28;20498;-73
2022/12/10 02:57:35;;;;;;;94.37;30.30;;;-0.40;99.90;;;;;;5034759;28;20558;-75
2022/12/10 03:00:07;;;;;;;110.37;31.70;;;-0.30;99.90;;;;;;5023705;28;20441;-74
2022/12/10 03:02:44;;;;;;;80.73;29.67;;;-0.50;99.90;;;;;;5034638;28;20463;-74
2022/12/10 03:05:18;;;;;;;100.50;29.03;;;-0.60;99.90;;;;;;5034923;28;20448;-76
2022/12/10 03:07:50;;;;;;;74.60;28.77;;;-0.50;99.90;;;;;;5035428;28;20475;-73
2022/12/10 03:10:25;;;;;;;76.70;29.90;;;-0.60;99.90;;;;;;5034960;28;20783;-74
2022/12/10 03:12:59;;;;;;;90.40;30.67;;;-0.40;99.90;;;;;;5035768;28;20483;-73
2022/12/10 03:15:27;;;;;;;88.80;29.03;;;-0.40;99.90;;;;;;5035367;28;20814;-73
2022/12/10 03:17:57;;;;;;;110.17;31.47;;;-0.40;99.90;;;;;;5035621;28;20464;-74
2022/12/10 03:20:25;;;;;;;97.97;30.80;;;-0.40;99.90;;;;;;5035723;28;20444;-74
2022/12/10 03:22:52;;;;;;;85.23;31.50;;;-0.40;99.90;;;;;;5035558;28;20935;-72
2022/12/10 03:25:23;;;;;;;106.63;33.63;;;-0.40;99.90;;;;;;5035164;28;20456;-75
2022/12/10 03:27:54;;;;;;;143.10;34.07;;;-0.30;99.90;;;;;;5035539;28;20784;-73
2022/12/10 03:30:21;;;;;;;95.37;32.80;;;-0.40;99.90;;;;;;5035255;28;20429;-75
2022/12/10 03:32:49;;;;;;;93.77;31.90;;;-0.30;99.90;;;;;;5035270;28;20975;-75
2022/12/10 03:35:19;;;;;;;130.57;34.23;;;-0.20;99.90;;;;;;5035118;28;20445;-75
2022/12/10 03:37:49;;;;;;;90.67;33.07;;;-0.20;99.90;;;;;;5035783;28;20456;-74
2022/12/10 03:40:18;;;;;;;131.73;34.60;;;-0.20;99.90;;;;;;5034763;28;20464;-75
2022/12/10 03:42:45;;;;;;;129.83;36.17;;;-0.10;99.90;;;;;;5035316;28;20494;-75
2022/12/10 03:45:12;;;;;;;110.50;35.53;;;-0.10;99.90;;;;;;5035605;28;20436;-76
2022/12/10 03:47:39;;;;;;;105.93;35.67;;;-0.10;99.90;;;;;;5035331;28;20451;-74
2022/12/10 03:50:06;;;;;;;163.57;36.33;;;-0.20;99.90;;;;;;5034927;28;20444;-79
2022/12/10 03:52:36;;;;;;;139.07;35.33;;;-0.10;99.90;;;;;;5035091;28;20518;-80
2022/12/10 03:55:04;;;;;;;172.93;36.07;;;0.00;99.90;;;;;;5033321;28;20451;-76
2022/12/10 03:57:30;;;;;;;115.20;37.17;;;-0.10;99.90;;;;;;5035101;28;20862;-75
2022/12/10 03:59:57;;;;;;;120.30;36.30;;;-0.10;99.90;;;;;;5033946;28;20440;-75
2022/12/10 04:02:24;;;;;;;217.70;35.33;;;0.00;99.90;;;;;;5035055;28;20441;-78
2022/12/10 04:04:51;;;;;;;160.87;36.97;;;0.00;99.90;;;;;;5035247;28;20448;-77
2022/12/10 04:07:17;;;;;;;177.40;37.37;;;-0.20;99.90;;;;;;5034417;28;20448;-76
2022/12/10 04:09:47;;;;;;;165.60;38.70;;;-0.10;99.90;;;;;;5032896;28;20432;-75
2022/12/10 04:12:13;;;;;;;152.07;36.30;;;0.00;99.90;;;;;;5032913;28;20937;-76
2022/12/10 04:17:26;;;;;;;164.43;35.17;;;0.20;99.90;;;;;;5034154;28;20448;-76
2022/12/10 04:19:52;;;;;;;153.90;34.50;;;0.20;99.90;;;;;;5034249;28;20455;-76
2022/12/10 04:27:50;;;;;;;198.80;35.30;;;0.00;99.90;;;;;;5034540;28;20467;-77
2022/12/10 04:30:16;;;;;;;150.87;33.50;;;0.00;99.90;;;;;;5032816;28;20448;-74
2022/12/10 04:32:43;;;;;;;249.83;39.67;;;0.00;99.90;;;;;;5034265;28;20444;-77
2022/12/10 04:35:10;;;;;;;156.57;31.47;;;-0.20;99.90;;;;;;5033685;28;20447;-75
2022/12/10 04:37:37;;;;;;;175.90;42.58;;;-0.30;99.90;;;;;;5031635;28;20450;-77
2022/12/10 04:40:06;;;;;;;146.70;33.77;;;-0.40;99.90;;;;;;5033244;28;20223;-76
2022/12/10 04:42:34;;;;;;;159.73;31.57;;;-0.40;99.90;;;;;;5034117;28;20867;-75
2022/12/10 04:45:01;;;;;;;142.73;32.77;;;-0.30;99.90;;;;;;5034247;28;20436;-77
2022/12/10 04:47:27;;;;;;;161.23;34.07;;;-0.40;99.90;;;;;;5034194;28;20471;-78
2022/12/10 04:49:54;;;;;;;190.43;34.93;;;-0.30;99.90;;;;;;5033221;28;20794;-72
2022/12/10 04:52:21;;;;;;;169.87;33.20;;;-0.30;99.90;;;;;;5033091;28;20436;-76
2022/12/10 04:54:48;;;;;;;167.57;33.33;;;-0.30;99.90;;;;;;5034151;28;20498;-77
2022/12/10 04:57:17;;;;;;;161.13;35.37;;;-0.30;99.90;;;;;;5033556;28;20908;-80
2022/12/10 04:59:44;;;;;;;145.80;32.30;;;-0.20;99.90;;;;;;5033331;28;20447;-75
2022/12/10 05:02:11;;;;;;;150.17;34.97;;;-0.30;99.90;;;;;;5034004;28;20459;-76
2022/12/10 05:04:37;;;;;;;137.93;34.03;;;-0.20;99.90;;;;;;5033519;28;20455;-74
2022/12/10 05:07:04;;;;;;;204.03;34.63;;;-0.20;99.90;;;;;;5032698;28;20447;-80
2022/12/10 05:09:31;;;;;;;143.00;32.93;;;-0.20;99.90;;;;;;5033609;28;20452;-77
2022/12/10 05:11:58;;;;;;;155.67;34.97;;;-0.30;99.90;;;;;;5033748;28;20444;-77
2022/12/10 05:14:26;;;;;;;164.47;33.47;;;-0.20;99.90;;;;;;5033729;28;20483;-75
2022/12/10 05:16:54;;;;;;;157.53;35.40;;;-0.20;99.90;;;;;;5033666;28;20448;-75
2022/12/10 05:19:23;;;;;;;162.07;34.43;;;-0.30;99.90;;;;;;5033794;28;20437;-74
2022/12/10 05:24:35;;;;;;;123.03;30.73;;;-0.30;99.90;;;;;;5033843;28;20491;-83
2022/12/10 05:27:02;;;;;;;231.70;36.27;;;-0.20;99.90;;;;;;5033501;28;20444;-78
2022/12/10 05:29:30;;;;;;;147.87;31.27;;;-0.20;99.90;;;;;;5032950;28;20451;-75
2022/12/10 05:31:57;;;;;;;154.67;29.67;;;-0.20;99.90;;;;;;5033173;28;20440;-80
2022/12/10 05:34:24;;;;;;;92.43;27.93;;;-0.20;99.90;;;;;;5033784;28;20492;-76
2022/12/10 05:36:51;;;;;;;139.57;31.27;;;-0.10;99.90;;;;;;5033215;28;20460;-77
2022/12/10 05:39:17;;;;;;;127.23;30.43;;;0.00;99.90;;;;;;5033044;28;20460;-75
2022/12/10 05:41:45;;;;;;;123.70;31.03;;;-0.10;99.90;;;;;;5033582;28;20444;-75
2022/12/10 05:44:12;;;;;;;116.37;30.93;;;-0.10;99.90;;;;;;5033636;28;20854;-77
2022/12/10 05:46:40;;;;;;;121.63;29.37;;;-0.20;99.90;;;;;;5033240;28;20943;-74
2022/12/10 05:49:08;;;;;;;135.33;31.23;;;-0.20;99.90;;;;;;5033228;28;20432;-76
2022/12/10 05:51:37;;;;;;;102.30;30.17;;;-0.10;99.90;;;;;;5033139;28;20441;-76
2022/12/10 05:54:05;;;;;;;147.07;31.10;;;0.00;99.90;;;;;;5033569;28;20476;-75
2022/12/10 05:56:32;;;;;;;114.73;30.57;;;0.00;99.90;;;;;;5033578;28;20455;-82
2022/12/10 05:59:01;;;;;;;115.57;29.87;;;0.10;99.90;;;;;;5032930;28;20448;-76
2022/12/10 06:01:31;;;;;;;109.80;28.33;;;-0.10;99.90;;;;;;5031403;28;20456;-77
2022/12/10 06:04:00;;;;;;;151.23;31.10;;;0.00;99.90;;;;;;5032922;28;20451;-75
2022/12/10 06:06:29;;;;;;;186.77;32.07;;;-0.10;99.90;;;;;;5031611;28;20456;-78
2022/12/10 06:08:57;;;;;;;139.53;30.03;;;-0.10;99.90;;;;;;5032068;28;20457;-77
2022/12/10 06:11:24;;;;;;;137.03;31.27;;;-0.10;99.90;;;;;;5032243;28;20452;-76
2022/12/10 06:13:51;;;;;;;160.87;32.87;;;-0.20;99.90;;;;;;5032640;28;20525;-85
2022/12/10 06:16:17;;;;;;;150.87;33.63;;;-0.10;99.90;;;;;;5033090;28;20457;-78
2022/12/10 06:18:44;;;;;;;171.10;30.53;;;0.00;99.90;;;;;;5033008;28;20460;-80
2022/12/10 06:21:14;;;;;;;133.40;31.50;;;0.00;99.90;;;;;;5032793;28;20467;-79
2022/12/10 06:23:42;;;;;;;120.30;29.47;;;0.00;99.90;;;;;;5020847;28;20460;-80
2022/12/10 06:26:11;;;;;;;85.43;24.83;;;0.00;99.90;;;;;;5031542;28;20451;-82
2022/12/10 06:28:38;;;;;;;104.13;28.03;;;-0.10;99.90;;;;;;5033272;28;20451;-76
2022/12/10 06:31:06;;;;;;;98.07;27.33;;;-0.10;99.90;;;;;;5032172;28;20436;-79
2022/12/10 06:33:33;;;;;;;115.50;32.28;;;-0.20;99.90;;;;;;5032386;28;20455;-79
2022/12/10 06:35:59;;;;;;;124.83;29.47;;;-0.10;99.90;;;;;;5031587;28;20211;-75
2022/12/10 06:38:28;;;;;;;140.13;28.97;;;-0.10;99.90;;;;;;5032020;28;20445;-74
2022/12/10 06:40:54;;;;;;;138.13;30.00;;;-0.10;99.90;;;;;;5036452;28;20472;-74
2022/12/10 06:43:21;;;;;;;132.67;27.57;;;-0.10;99.90;;;;;;5036366;28;20447;-77
2022/12/10 06:45:48;;;;;;;115.73;28.17;;;-0.10;99.90;;;;;;5024908;28;20464;-77
2022/12/10 06:48:15;;;;;;;98.00;27.20;;;-0.20;99.90;;;;;;5033992;28;20935;-76
2022/12/10 06:50:41;;;;;;;100.63;25.77;;;-0.20;99.90;;;;;;5034571;28;20563;-82
2022/12/10 06:53:08;;;;;;;98.77;25.33;;;-0.30;99.90;;;;;;5023723;28;20461;-82
2022/12/10 06:55:38;;;;;;;88.13;25.60;;;-0.20;99.90;;;;;;5031957;28;20518;-78
2022/12/10 06:58:05;;;;;;;127.23;27.10;;;-0.20;99.90;;;;;;5034968;28;20510;-76
2022/12/10 07:00:33;;;;;;;110.00;24.60;;;-0.10;99.90;;;;;;5032714;28;20452;-76
2022/12/10 07:03:00;;;;;;;98.27;27.67;;;0.00;99.90;;;;;;5023497;28;20436;-75
2022/12/10 07:05:27;;;;;;;123.57;26.87;;;0.00;99.90;;;;;;5035087;28;20449;-75
2022/12/10 07:07:53;;;;;;;84.17;24.67;;;-0.10;99.90;;;;;;5021863;28;20456;-76
2022/12/10 07:10:20;;;;;;;80.13;23.30;;;-0.10;99.90;;;;;;5035807;28;20450;-78
2022/12/10 07:12:49;;;;;;;81.03;23.53;;;-0.20;99.90;;;;;;5034883;28;20812;-76
2022/12/10 07:15:16;;;;;;;84.67;21.37;;;-0.30;99.90;;;;;;5033690;28;20495;-76
2022/12/10 07:17:42;;;;;;;74.33;19.83;;;-0.30;99.90;;;;;;5015014;28;20460;-73
2022/12/10 07:20:11;;;;;;;63.67;21.00;;;-0.40;99.90;;;;;;5027849;28;20458;-76
2022/12/10 07:22:38;;;;;;;81.67;20.30;;;-0.20;99.90;;;;;;5034771;28;20440;-75
2022/12/10 07:25:05;;;;;;;60.73;20.10;;;-0.20;99.90;;;;;;5035133;28;20459;-75
2022/12/10 07:27:32;;;;;;;65.77;19.80;;;-0.20;99.90;;;;;;5035555;28;20444;-74
2022/12/10 07:30:00;;;;;;;53.70;19.43;;;-0.20;99.90;;;;;;5034128;28;20491;-77
2022/12/10 07:32:28;;;;;;;69.10;20.20;;;-0.20;99.90;;;;;;5034971;28;20440;-74
2022/12/10 07:34:54;;;;;;;59.97;19.30;;;-0.20;99.90;;;;;;5034138;28;20488;-74
2022/12/10 07:37:21;;;;;;;54.13;18.40;;;-0.20;99.90;;;;;;5034216;28;20464;-74
2022/12/10 07:39:48;;;;;;;59.07;18.73;;;-0.20;99.90;;;;;;5034533;28;20468;-74
2022/12/10 07:42:15;;;;;;;65.20;19.80;;;-0.10;99.90;;;;;;5035236;28;20456;-75
2022/12/10 07:44:42;;;;;;;72.37;20.20;;;-0.10;99.90;;;;;;5034269;28;20444;-77
2022/12/10 07:47:10;;;;;;;66.90;19.17;;;-0.20;99.90;;;;;;5034947;28;20448;-78
2022/12/10 07:49:37;;;;;;;84.17;19.83;;;-0.10;99.90;;;;;;5033522;28;20445;-76
2022/12/10 07:52:04;;;;;;;72.77;22.33;;;0.00;99.90;;;;;;5033007;28;20436;-73
2022/12/10 07:54:31;;;;;;;80.67;20.63;;;-0.10;99.90;;;;;;5034175;28;20494;-75
2022/12/10 07:56:57;;;;;;;75.40;20.07;;;-0.10;99.90;;;;;;5033739;28;20452;-75
2022/12/10 07:59:24;;;;;;;55.20;18.87;;;-0.20;99.90;;;;;;5033565;28;20445;-75
2022/12/10 08:01:52;;;;;;;101.83;21.27;;;-0.20;99.90;;;;;;5024829;28;20465;-74
2022/12/10 08:04:20;;;;;;;64.40;19.33;;;-0.20;99.90;;;;;;5030661;28;20816;-73
2022/12/10 08:06:47;;;;;;;65.83;19.17;;;-0.20;99.90;;;;;;5034297;28;20475;-74
2022/12/10 08:09:14;;;;;;;60.13;18.73;;;-0.10;99.90;;;;;;5034585;28;20453;-74
2022/12/10 08:11:41;;;;;;;72.97;19.63;;;0.00;99.90;;;;;;5034341;28;20444;-74
2022/12/10 08:14:08;;;;;;;68.50;20.47;;;-0.10;99.90;;;;;;5028428;28;20479;-75
2022/12/10 08:16:34;;;;;;;70.87;19.63;;;0.00;99.90;;;;;;5013729;28;20453;-78
2022/12/10 08:19:03;;;;;;;63.67;18.33;;;-0.10;99.90;;;;;;5031319;28;20444;-75
2022/12/10 08:21:32;;;;;;;91.10;20.33;;;-0.10;99.90;;;;;;5033178;28;20448;-81
2022/12/10 08:24:00;;;;;;;75.90;20.67;;;0.00;99.90;;;;;;5018576;28;20546;-78
2022/12/10 08:26:29;;;;;;;74.93;21.20;;;0.00;99.90;;;;;;5033299;28;20947;-76
2022/12/10 08:28:57;;;;;;;59.83;20.50;;;-0.10;99.90;;;;;;5034244;28;20796;-77
2022/12/10 08:31:25;;;;;;;62.33;19.57;;;0.00;99.90;;;;;;5033833;28;20866;-77
2022/12/10 08:33:52;;;;;;;70.37;19.07;;;0.10;99.90;;;;;;5034465;28;20464;-80
2022/12/10 08:36:20;;;;;;;64.03;21.07;;;0.00;99.90;;;;;;5029621;28;20449;-80
2022/12/10 08:38:48;;;;;;;56.07;20.47;;;0.10;99.90;;;;;;5023256;28;20441;-77
2022/12/10 08:41:17;;;;;;;74.07;21.07;;;0.30;99.90;;;;;;5030635;28;20448;-77
2022/12/10 08:43:45;;;;;;;66.60;22.50;;;0.30;99.90;;;;;;5021443;28;20452;-77
2022/12/10 08:46:14;;;;;;;79.67;22.63;;;0.40;99.90;;;;;;5033602;28;20452;-76
2022/12/10 08:48:41;;;;;;;80.83;23.37;;;0.30;99.90;;;;;;5021397;28;20475;-76
2022/12/10 08:51:09;;;;;;;72.23;22.07;;;0.40;99.90;;;;;;5033722;28;20451;-74
2022/12/10 08:53:36;;;;;;;75.50;22.37;;;0.50;99.90;;;;;;5033319;28;20440;-75
2022/12/10 08:56:04;;;;;;;73.93;21.80;;;0.50;99.90;;;;;;5033511;28;20492;-74
2022/12/10 08:58:31;;;;;;;67.40;22.50;;;0.50;99.90;;;;;;5033710;28;20447;-78
2022/12/10 09:00:58;;;;;;;124.05;36.83;;;0.50;99.90;;;;;;5022098;28;20439;-76
2022/12/10 09:03:25;;;;;;;77.77;23.77;;;0.70;99.90;;;;;;5030069;28;20229;-82
2022/12/10 09:05:52;;;;;;;75.33;24.00;;;0.60;99.90;;;;;;5033082;28;20452;-79
2022/12/10 09:08:19;;;;;;;74.37;23.97;;;0.60;99.90;;;;;;5033184;28;20455;-76
2022/12/10 09:10:46;;;;;;;76.03;22.17;;;0.60;99.90;;;;;;5020396;28;20445;-74
2022/12/10 09:13:14;;;;;;;70.33;21.50;;;0.70;99.90;;;;;;5012818;28;20441;-86
2022/12/10 09:15:41;;;;;;;80.33;23.80;;;0.60;99.90;;;;;;5013223;28;20477;-86
2022/12/10 09:18:07;;;;;;;71.87;21.73;;;0.50;99.90;;;;;;5013089;28;20460;-84
2022/12/10 09:20:35;;;;;;;70.03;22.37;;;0.60;99.90;;;;;;5012941;28;20445;-86
2022/12/10 09:23:02;;;;;;;95.43;26.30;;;0.60;99.90;;;;;;5013137;28;20437;-85
2022/12/10 09:25:28;;;;;;;72.10;22.07;;;0.60;99.90;;;;;;5013096;28;20445;-83
2022/12/10 09:27:55;;;;;;;77.07;21.90;;;0.60;99.90;;;;;;5013216;28;20437;-75
2022/12/10 09:30:23;;;;;;;69.97;21.57;;;0.80;99.90;;;;;;5012725;28;20448;-79
2022/12/10 09:32:50;;;;;;;75.60;22.23;;;0.70;99.90;;;;;;5013640;28;20453;-76
2022/12/10 09:35:17;;;;;;;84.90;22.40;;;0.70;99.90;;;;;;5025412;28;20502;-76
2022/12/10 09:37:44;;;;;;;73.70;22.20;;;0.70;99.90;;;;;;5020555;28;20534;-80
2022/12/10 09:40:16;;;;;;;96.80;23.20;;;0.60;99.90;;;;;;5026646;28;20470;-85
2022/12/10 09:42:50;;;;;;;73.80;21.47;;;0.80;99.90;;;;;;5016771;28;20440;-76
2022/12/10 09:45:26;;;;;;;82.73;23.60;;;0.80;99.90;;;;;;5032508;28;20452;-74
2022/12/10 09:48:00;;;;;;;81.93;21.23;;;1.00;99.90;;;;;;5032586;28;20451;-72
2022/12/10 09:50:33;;;;;;;83.97;24.73;;;1.20;99.90;;;;;;5032828;28;20787;-75
2022/12/10 09:53:02;;;;;;;84.30;22.47;;;1.20;99.90;;;;;;5032126;28;20440;-75
2022/12/10 09:55:35;;;;;;;89.40;23.50;;;1.20;99.90;;;;;;5032831;28;20476;-72
2022/12/10 09:58:05;;;;;;;70.13;22.67;;;1.10;99.90;;;;;;5032375;28;20429;-74
2022/12/10 10:00:36;;;;;;;79.57;22.40;;;1.10;99.90;;;;;;5032571;28;20445;-74
2022/12/10 10:03:06;;;;;;;83.00;23.00;;;1.10;99.90;;;;;;5033040;28;20433;-76
2022/12/10 10:05:36;;;;;;;72.73;22.00;;;1.10;99.90;;;;;;5032782;28;20455;-74
2022/12/10 10:08:05;;;;;;;71.73;22.23;;;1.20;99.90;;;;;;5030355;28;20467;-75
2022/12/10 10:10:34;;;;;;;78.33;22.67;;;1.30;99.90;;;;;;5030750;28;20440;-74
2022/12/10 10:13:12;;;;;;;70.37;22.77;;;1.40;99.90;;;;;;5032489;28;20440;-76
2022/12/10 10:15:42;;;;;;;71.53;23.10;;;1.50;99.90;;;;;;5022533;28;20511;-73
2022/12/10 10:18:18;;;;;;;72.37;23.23;;;1.50;99.90;;;;;;5026366;28;20449;-74
2022/12/10 10:20:46;;;;;;;73.83;23.27;;;1.60;99.90;;;;;;5034695;28;20447;-74
2022/12/10 10:23:16;;;;;;;73.83;24.07;;;1.70;99.90;;;;;;5036496;28;20813;-75
2022/12/10 10:25:43;;;;;;;75.07;23.13;;;1.60;99.90;;;;;;5036440;28;20456;-75
2022/12/10 10:28:13;;;;;;;73.85;24.30;;;1.60;99.90;;;;;;5036465;28;20457;-73
2022/12/10 10:30:44;;;;;;;67.80;23.23;;;1.60;99.90;;;;;;5036473;28;20207;-74
2022/12/10 10:33:14;;;;;;;76.10;24.00;;;1.40;99.90;;;;;;5036446;28;20455;-75
2022/12/10 10:35:46;;;;;;;102.83;24.60;;;1.50;99.90;;;;;;5036094;28;20488;-74
2022/12/10 10:38:20;;;;;;;69.27;23.07;;;1.50;99.90;;;;;;5036485;28;20444;-73
2022/12/10 10:40:50;;;;;;;63.47;22.83;;;1.40;99.90;;;;;;5036158;28;20571;-74
2022/12/10 10:43:21;;;;;;;64.40;22.77;;;1.30;99.90;;;;;;5036205;28;20444;-73
2022/12/10 10:45:50;;;;;;;66.17;21.93;;;1.50;99.90;;;;;;5035540;28;20448;-74
2022/12/10 10:48:21;;;;;;;60.80;21.80;;;1.60;99.90;;;;;;5033406;28;20460;-74
2022/12/10 10:50:50;;;;;;;59.17;21.40;;;1.80;99.90;;;;;;5032705;28;20971;-73
2022/12/10 10:53:29;;;;;;;60.27;22.10;;;1.90;99.90;;;;;;5036108;28;20458;-75
2022/12/10 10:55:59;;;;;;;59.37;21.50;;;1.90;99.90;;;;;;5035426;28;21059;-73
2022/12/10 10:58:27;;;;;;;59.53;19.00;;;1.60;99.90;;;;;;5036193;28;20451;-74
2022/12/10 11:01:00;;;;;;;46.93;17.20;;;1.40;99.90;;;;;;5022216;28;20444;-74
2022/12/10 11:03:29;;;;;;;54.33;18.90;;;1.40;99.90;;;;;;5036125;28;20451;-74
2022/12/10 11:05:59;;;;;;;54.10;18.90;;;1.60;99.90;;;;;;5035807;28;20455;-76
2022/12/10 11:08:29;;;;;;;57.20;20.43;;;1.80;99.90;;;;;;5035740;28;20514;-74
2022/12/10 11:11:02;;;;;;;54.47;18.53;;;1.70;99.90;;;;;;5035243;28;20448;-75
2022/12/10 11:13:30;;;;;;;55.23;19.30;;;1.90;99.90;;;;;;5036339;28;20453;-75
2022/12/10 11:16:00;;;;;;;62.63;19.17;;;1.90;99.90;;;;;;5035258;28;20484;-75
2022/12/10 11:18:32;;;;;;;65.23;20.73;;;1.90;99.90;;;;;;5034777;28;20448;-76
2022/12/10 11:21:06;;;;;;;58.77;20.60;;;1.90;99.90;;;;;;5035170;28;20448;-75
2022/12/10 11:23:39;;;;;;;62.57;21.53;;;2.00;99.90;;;;;;5035075;28;20445;-75
2022/12/10 11:26:29;;;;;;;42.77;18.83;;;1.90;99.90;;;;;;5035418;28;20453;-74
2022/12/10 11:29:10;;;;;;;60.23;21.20;;;2.00;99.90;;;;;;5034735;28;20499;-77
2022/12/10 11:31:50;;;;;;;52.87;19.90;;;1.90;99.90;;;;;;5013855;28;20452;-76
2022/12/10 11:34:23;;;;;;;54.00;17.93;;;1.90;99.90;;;;;;5017858;28;20437;-78
2022/12/10 11:36:58;;;;;;;62.13;20.67;;;1.90;99.90;;;;;;5021633;28;20511;-76
2022/12/10 11:39:52;;;;;;;56.20;20.27;;;1.90;99.90;;;;;;5033080;28;20837;-90
2022/12/10 11:42:26;;;;;;;56.17;18.77;;;2.00;99.90;;;;;;5031518;28;20995;-89
2022/12/10 11:45:02;;;;;;;52.00;20.17;;;2.00;99.90;;;;;;5035241;28;20451;-85
2022/12/10 11:47:44;;;;;;;57.53;21.13;;;2.20;99.90;;;;;;5034913;28;20476;-89
2022/12/10 11:50:24;;;;;;;52.90;19.30;;;2.30;99.90;;;;;;5035982;28;20448;-80
2022/12/10 11:53:13;;;;;;;57.57;20.03;;;2.10;99.90;;;;;;5034707;28;20455;-87
2022/12/10 11:55:52;;;;;;;56.00;20.30;;;1.90;99.90;;;;;;5021121;28;20493;-86
2022/12/10 11:58:35;;;;;;;69.13;29.27;;;1.90;99.90;;;;;;5025581;28;20438;-82
2022/12/10 12:01:10;;;;;;;59.40;22.07;;;1.80;99.90;;;;;;5033997;28;20203;-86
2022/12/10 12:03:56;;;;;;;60.20;20.80;;;1.90;99.90;;;;;;5034699;28;20447;-86
2022/12/10 12:06:52;;;;;;;62.00;21.47;;;2.00;99.90;;;;;;5034965;28;20491;-85
2022/12/10 12:09:27;;;;;;;57.93;20.40;;;2.20;99.90;;;;;;5033789;28;20901;-83
2022/12/10 12:12:07;;;;;;;57.93;21.20;;;2.10;99.90;;;;;;5033277;28;20495;-85
2022/12/10 12:14:40;;;;;;;61.20;21.03;;;2.10;99.90;;;;;;5033163;28;20444;-85
2022/12/10 12:17:15;;;;;;;53.37;21.07;;;2.20;99.90;;;;;;5034224;28;20495;-86
2022/12/10 12:19:47;;;;;;;51.13;19.80;;;2.20;99.90;;;;;;5035047;28;20470;-86
2022/12/10 12:22:22;;;;;;;59.20;22.17;;;2.20;99.90;;;;;;5034235;28;20448;-86
2022/12/10 12:24:53;;;;;;;54.60;20.10;;;2.30;99.90;;;;;;5034819;28;20461;-85
2022/12/10 12:27:26;;;;;;;56.67;20.33;;;2.20;99.90;;;;;;5034067;28;20451;-75
2022/12/10 12:30:02;;;;;;;53.13;19.07;;;2.20;99.90;;;;;;5032578;28;21274;-75
2022/12/10 12:32:37;;;;;;;47.37;18.70;;;2.40;99.90;;;;;;5032479;28;20455;-76
2022/12/10 12:35:10;;;;;;;48.40;19.63;;;2.50;99.90;;;;;;5032437;28;20439;-75
2022/12/10 12:37:43;;;;;;;48.80;19.20;;;2.30;99.90;;;;;;5032440;28;20456;-84
2022/12/10 12:40:16;;;;;;;51.10;18.47;;;2.20;99.90;;;;;;5033749;28;20464;-82
2022/12/10 12:42:49;;;;;;;52.40;19.07;;;2.30;99.90;;;;;;5034333;28;20445;-87
2022/12/10 12:45:21;;;;;;;50.03;18.23;;;2.30;99.90;;;;;;5034466;28;20920;-84
2022/12/10 12:47:56;;;;;;;47.23;18.93;;;2.60;99.90;;;;;;5033864;28;20453;-86
2022/12/10 12:50:28;;;;;;;48.17;18.63;;;2.50;99.90;;;;;;5034485;28;20447;-88
2022/12/10 12:52:58;;;;;;;52.57;19.07;;;2.50;99.90;;;;;;5034231;28;20444;-91
2022/12/10 12:55:32;;;;;;;47.93;20.23;;;2.40;99.90;;;;;;5033909;28;20484;-90